ETMN

Nordholz Naval Airbase Airport

Cuxhaven, Germany
METAR ETMN 190320Z 22007KT 9999 FEW015 SCT034 00/M00 Q1000 BLU+
Observed Flight Rules
Jan-19 @ 03:20 UTC (23 minutes ago) Visual Flight Rules
Wind Visibility Clouds
220° at 7 knots 10,000+ meters
  • Few at 1,500' AGL
  • Scattered at 3,400' AGL
Temperatures Readings
Current 0°C / 32°F
Dewpoint 0°C / 32°F
Humidity 100%
Altimeter 29.53" Hg
Pressure 1000 hPa
Elevation 31
METAR ETMN 190320Z 22007KT 9999 FEW015 SCT034 00/M00 Q1000 BLU+
Observed Flight Rules
Jan-19 @ 03:20 UTC
(23 minutes ago)
VFR
Wind Visibility
220° at 7 knots 10,000+ meters
Clouds
  • Few at 1,500' AGL
  • Scattered at 3,400' AGL
Temperature Dewpoint
0°C / 32°F 0°C / 32°F
Humidity Altimeter Pressure
100% 29.53" Hg 1000 hPa